Mitchel — WDE7728 — position and weather

sailwx.info

Track history (hours):
 
Tides and Currents Weather Stations Pressure Air Temp Water Temp Dewpoint Dewpoint Depression Visibility Wind Speed Wind Dir Waves Ship Positions

Mitchel

Owner: AMERICAN TUGS INC., SAN JUAN, PR. More information available from US FCC via Universal Licensing System and Coast Guard Vessel Documentation Center.

Last reported at 2016-Jul-29 21:33 UTC. Time now 2016-Jul-29 21:44 UTC.
Position N 17°58' W 066°37'.

Length 27 m; draft 3.1 m.

Type: Tug. MMSI: 367346890.

Date/timePositionNaut miles runAvg speedWind from/ knotsBaromVisibWave heightAir tempDewpointWater temp
2016-Jul-29 21:33N 17°58' W 066°37'0 0.0
2016-Jul-29 20:33N 17°58' W 066°37'0 0.0
2016-Jul-29 19:33N 17°58' W 066°37'0 0.0
2016-Jul-29 18:33N 17°58' W 066°37'0 0.0
2016-Jul-29 17:33N 17°58' W 066°37'0 0.0
2016-Jul-29 16:33N 17°58' W 066°37'0 0.0
2016-Jul-29 15:33N 17°58' W 066°37'0 0.0
2016-Jul-29 14:33N 17°58' W 066°37'0 0.0
2016-Jul-29 13:33N 17°58' W 066°37'0 0.0
2016-Jul-29 12:33N 17°58' W 066°37'0 0.0
2016-Jul-29 11:33N 17°58' W 066°37'0 0.0
2016-Jul-29 10:33N 17°58' W 066°37'0 0.0
2016-Jul-29 09:33N 17°58' W 066°37'0 0.0
2016-Jul-29 08:33N 17°58' W 066°37'0 0.0
2016-Jul-29 07:33N 17°58' W 066°37'0 0.0
2016-Jul-29 06:33N 17°58' W 066°37'0 0.0
2016-Jul-29 05:33N 17°58' W 066°37'0 0.0
2016-Jul-29 04:33N 17°58' W 066°37'0 0.0
2016-Jul-29 03:33N 17°58' W 066°37'0 0.0
2016-Jul-29 02:33N 17°58' W 066°37'0 0.0
2016-Jul-29 01:33N 17°58' W 066°37'0 0.0
2016-Jul-29 00:33N 17°58' W 066°37'0 0.0
2016-Jul-28 23:33N 17°58' W 066°37'0 0.0
2016-Jul-28 22:33N 17°58' W 066°37'0 0.0
2016-Jul-28 21:33N 17°58' W 066°37'0 0.0
2016-Jul-28 20:33N 17°58' W 066°37'0 0.0
2016-Jul-28 19:33N 17°58' W 066°37'0 0.0
2016-Jul-28 18:33N 17°58' W 066°37'0 0.0
2016-Jul-28 17:33N 17°58' W 066°37'0 0.0
2016-Jul-28 16:33N 17°58' W 066°37'1 1.4
2016-Jul-28 15:33N 17°57' W 066°38'5 4.8
2016-Jul-28 14:33N 17°53' W 066°35'4 3.9
2016-Jul-28 13:33N 17°50' W 066°32'5 5.1
2016-Jul-28 12:33N 17°50' W 066°27'5 5.1
2016-Jul-28 11:33N 17°50' W 066°22'5 5.2
2016-Jul-28 10:33N 17°50' W 066°16'5 5.3
2016-Jul-28 09:33N 17°51' W 066°11'5 5.4
2016-Jul-28 08:33N 17°52' W 066°05'5 5.4
2016-Jul-28 07:32N 17°54' W 065°60'82 5.8
2016-Jul-27 17:29N 18°21' W 064°38'3 0.3
2016-Jul-27 07:23N 18°23' W 064°39'0 0.0
2016-Jul-27 05:29N 18°23' W 064°39'0 0.0
2016-Jul-27 04:29N 18°23' W 064°39'0 0.0
2016-Jul-27 03:29N 18°23' W 064°39'0 0.0
2016-Jul-27 02:29N 18°23' W 064°39'0 0.0
2016-Jul-27 01:23N 18°23' W 064°39'0 0.0
2016-Jul-27 00:29N 18°23' W 064°39'0 0.0
2016-Jul-26 23:32N 18°23' W 064°39'0 0.0
2016-Jul-26 10:29N 18°23' W 064°39'0 0.0
2016-Jul-26 09:29N 18°23' W 064°39'0 0.0
2016-Jul-26 08:23N 18°23' W 064°39'0 0.0
2016-Jul-26 07:11N 18°23' W 064°39'0 0.0
2016-Jul-26 06:29N 18°23' W 064°39'0 0.0
2016-Jul-26 05:29N 18°23' W 064°39'0 0.0
2016-Jul-26 04:29N 18°23' W 064°39'0 0.0
2016-Jul-26 03:29N 18°23' W 064°39'0 0.0
2016-Jul-26 02:08N 18°23' W 064°39'0 0.0
2016-Jul-26 01:32N 18°23' W 064°39'0 0.0
2016-Jul-26 00:26N 18°23' W 064°39'0 0.0
2016-Jul-25 23:32N 18°23' W 064°39'0 0.0
2016-Jul-25 07:23N 18°23' W 064°39'0 0.0
2016-Jul-25 06:29N 18°23' W 064°39'0 0.0
2016-Jul-25 02:29N 18°23' W 064°39'0 0.0
2016-Jul-25 01:17N 18°23' W 064°39'0 0.0
2016-Jul-25 00:29N 18°23' W 064°39'0 0.0
2016-Jul-24 23:17N 18°23' W 064°39'0 0.0
2016-Jul-24 22:05N 18°23' W 064°39'0 0.0
2016-Jul-24 11:33N 18°23' W 064°39'  
Track history (hours):
 
Tides and Currents Weather Stations Pressure Air Temp Water Temp Dewpoint Dewpoint Depression Visibility Wind Speed Wind Dir Waves Ship Positions

Mitchel

Owner: AMERICAN TUGS INC., SAN JUAN, PR. More information available from US FCC via Universal Licensing System and Coast Guard Vessel Documentation Center.

Last reported at 2016-Jul-29 21:33 UTC. Time now 2016-Jul-29 21:44 UTC.
Position N 17°58' W 066°37'.

Length 27 m; draft 3.1 m.

Type: Tug. MMSI: 367346890.

Date/timePositionNaut miles runAvg speedWind from/ knotsBaromVisibWave heightAir tempDewpointWater temp
2016-Jul-29 21:33N 17°58' W 066°37'0 0.0
2016-Jul-29 20:33N 17°58' W 066°37'0 0.0
2016-Jul-29 19:33N 17°58' W 066°37'0 0.0
2016-Jul-29 18:33N 17°58' W 066°37'0 0.0
2016-Jul-29 17:33N 17°58' W 066°37'0 0.0
2016-Jul-29 16:33N 17°58' W 066°37'0 0.0
2016-Jul-29 15:33N 17°58' W 066°37'0 0.0
2016-Jul-29 14:33N 17°58' W 066°37'0 0.0
2016-Jul-29 13:33N 17°58' W 066°37'0 0.0
2016-Jul-29 12:33N 17°58' W 066°37'0 0.0
2016-Jul-29 11:33N 17°58' W 066°37'0 0.0
2016-Jul-29 10:33N 17°58' W 066°37'0 0.0
2016-Jul-29 09:33N 17°58' W 066°37'0 0.0
2016-Jul-29 08:33N 17°58' W 066°37'0 0.0
2016-Jul-29 07:33N 17°58' W 066°37'0 0.0
2016-Jul-29 06:33N 17°58' W 066°37'0 0.0
2016-Jul-29 05:33N 17°58' W 066°37'0 0.0
2016-Jul-29 04:33N 17°58' W 066°37'0 0.0
2016-Jul-29 03:33N 17°58' W 066°37'0 0.0
2016-Jul-29 02:33N 17°58' W 066°37'0 0.0
2016-Jul-29 01:33N 17°58' W 066°37'0 0.0
2016-Jul-29 00:33N 17°58' W 066°37'0 0.0
2016-Jul-28 23:33N 17°58' W 066°37'0 0.0
2016-Jul-28 22:33N 17°58' W 066°37'0 0.0
2016-Jul-28 21:33N 17°58' W 066°37'0 0.0
2016-Jul-28 20:33N 17°58' W 066°37'0 0.0
2016-Jul-28 19:33N 17°58' W 066°37'0 0.0
2016-Jul-28 18:33N 17°58' W 066°37'0 0.0
2016-Jul-28 17:33N 17°58' W 066°37'0 0.0
2016-Jul-28 16:33N 17°58' W 066°37'1 1.4
2016-Jul-28 15:33N 17°57' W 066°38'5 4.8
2016-Jul-28 14:33N 17°53' W 066°35'4 3.9
2016-Jul-28 13:33N 17°50' W 066°32'5 5.1
2016-Jul-28 12:33N 17°50' W 066°27'5 5.1
2016-Jul-28 11:33N 17°50' W 066°22'5 5.2
2016-Jul-28 10:33N 17°50' W 066°16'5 5.3
2016-Jul-28 09:33N 17°51' W 066°11'5 5.4
2016-Jul-28 08:33N 17°52' W 066°05'5 5.4
2016-Jul-28 07:32N 17°54' W 065°60'82 5.8
2016-Jul-27 17:29N 18°21' W 064°38'3 0.3
2016-Jul-27 07:23N 18°23' W 064°39'0 0.0
2016-Jul-27 05:29N 18°23' W 064°39'0 0.0
2016-Jul-27 04:29N 18°23' W 064°39'0 0.0
2016-Jul-27 03:29N 18°23' W 064°39'0 0.0
2016-Jul-27 02:29N 18°23' W 064°39'0 0.0
2016-Jul-27 01:23N 18°23' W 064°39'0 0.0
2016-Jul-27 00:29N 18°23' W 064°39'0 0.0
2016-Jul-26 23:32N 18°23' W 064°39'0 0.0
2016-Jul-26 10:29N 18°23' W 064°39'0 0.0
2016-Jul-26 09:29N 18°23' W 064°39'0 0.0
2016-Jul-26 08:23N 18°23' W 064°39'0 0.0
2016-Jul-26 07:11N 18°23' W 064°39'0 0.0
2016-Jul-26 06:29N 18°23' W 064°39'0 0.0
2016-Jul-26 05:29N 18°23' W 064°39'0 0.0
2016-Jul-26 04:29N 18°23' W 064°39'0 0.0
2016-Jul-26 03:29N 18°23' W 064°39'0 0.0
2016-Jul-26 02:08N 18°23' W 064°39'0 0.0
2016-Jul-26 01:32N 18°23' W 064°39'0 0.0
2016-Jul-26 00:26N 18°23' W 064°39'0 0.0
2016-Jul-25 23:32N 18°23' W 064°39'0 0.0
2016-Jul-25 07:23N 18°23' W 064°39'0 0.0
2016-Jul-25 06:29N 18°23' W 064°39'0 0.0
2016-Jul-25 02:29N 18°23' W 064°39'0 0.0
2016-Jul-25 01:17N 18°23' W 064°39'0 0.0
2016-Jul-25 00:29N 18°23' W 064°39'0 0.0
2016-Jul-24 23:17N 18°23' W 064°39'0 0.0
2016-Jul-24 22:05N 18°23' W 064°39'0 0.0
2016-Jul-24 11:33N 18°23' W 064°39'  

Dump ship's entire track history